sensor_id;sensor_type;location;lat;lon;timestamp;P1;durP1;ratioP1;P2;durP2;ratioP2
38208;SDS011;24016;52.102;11.584;2022-10-31T00:00:05;10.60;;;4.38;;
38208;SDS011;24016;52.102;11.584;2022-10-31T00:02:32;8.15;;;4.45;;
38208;SDS011;24016;52.102;11.584;2022-10-31T00:04:58;12.95;;;4.30;;
38208;SDS011;24016;52.102;11.584;2022-10-31T00:07:23;8.30;;;4.07;;
38208;SDS011;24016;52.102;11.584;2022-10-31T00:09:49;9.63;;;4.63;;
38208;SDS011;24016;52.102;11.584;2022-10-31T00:12:14;7.75;;;4.50;;
38208;SDS011;24016;52.102;11.584;2022-10-31T00:14:40;11.30;;;5.32;;
38208;SDS011;24016;52.102;11.584;2022-10-31T00:17:05;10.50;;;4.68;;
38208;SDS011;24016;52.102;11.584;2022-10-31T00:19:31;10.23;;;4.60;;
38208;SDS011;24016;52.102;11.584;2022-10-31T00:21:56;8.25;;;4.65;;
38208;SDS011;24016;52.102;11.584;2022-10-31T00:24:22;8.88;;;4.53;;
38208;SDS011;24016;52.102;11.584;2022-10-31T00:26:48;11.40;;;4.40;;
38208;SDS011;24016;52.102;11.584;2022-10-31T00:29:13;8.52;;;4.32;;
38208;SDS011;24016;52.102;11.584;2022-10-31T00:31:39;11.73;;;4.20;;
38208;SDS011;24016;52.102;11.584;2022-10-31T00:34:04;9.18;;;4.30;;
38208;SDS011;24016;52.102;11.584;2022-10-31T00:36:30;11.00;;;4.90;;
38208;SDS011;24016;52.102;11.584;2022-10-31T00:38:57;11.07;;;5.18;;
38208;SDS011;24016;52.102;11.584;2022-10-31T00:41:23;13.23;;;5.10;;
38208;SDS011;24016;52.102;11.584;2022-10-31T00:43:49;8.98;;;4.60;;
38208;SDS011;24016;52.102;11.584;2022-10-31T00:46:14;10.25;;;4.35;;
38208;SDS011;24016;52.102;11.584;2022-10-31T00:48:40;9.80;;;4.82;;
38208;SDS011;24016;52.102;11.584;2022-10-31T00:51:07;8.60;;;4.68;;
38208;SDS011;24016;52.102;11.584;2022-10-31T00:53:32;11.98;;;4.55;;
38208;SDS011;24016;52.102;11.584;2022-10-31T00:55:59;10.45;;;4.43;;
38208;SDS011;24016;52.102;11.584;2022-10-31T00:58:24;13.57;;;5.10;;
38208;SDS011;24016;52.102;11.584;2022-10-31T01:00:50;7.10;;;4.60;;
38208;SDS011;24016;52.102;11.584;2022-10-31T01:03:20;9.13;;;4.30;;
38208;SDS011;24016;52.102;11.584;2022-10-31T01:05:59;9.52;;;4.00;;
38208;SDS011;24016;52.102;11.584;2022-10-31T01:08:27;11.95;;;4.65;;
38208;SDS011;24016;52.102;11.584;2022-10-31T01:11:00;9.52;;;4.30;;
38208;SDS011;24016;52.102;11.584;2022-10-31T01:13:28;11.65;;;3.90;;
38208;SDS011;24016;52.102;11.584;2022-10-31T01:15:55;7.63;;;4.28;;
38208;SDS011;24016;52.102;11.584;2022-10-31T01:18:22;9.60;;;4.53;;
38208;SDS011;24016;52.102;11.584;2022-10-31T01:20:56;7.95;;;4.47;;
38208;SDS011;24016;52.102;11.584;2022-10-31T01:23:22;7.55;;;4.07;;
38208;SDS011;24016;52.102;11.584;2022-10-31T01:25:48;10.63;;;4.65;;
38208;SDS011;24016;52.102;11.584;2022-10-31T01:28:14;9.02;;;4.43;;
38208;SDS011;24016;52.102;11.584;2022-10-31T01:30:39;10.82;;;5.30;;
38208;SDS011;24016;52.102;11.584;2022-10-31T01:33:05;7.68;;;5.30;;
38208;SDS011;24016;52.102;11.584;2022-10-31T01:35:30;10.48;;;4.93;;
38208;SDS011;24016;52.102;11.584;2022-10-31T01:37:56;11.32;;;5.25;;
38208;SDS011;24016;52.102;11.584;2022-10-31T01:40:21;10.68;;;5.18;;
38208;SDS011;24016;52.102;11.584;2022-10-31T01:42:47;8.77;;;4.82;;
38208;SDS011;24016;52.102;11.584;2022-10-31T01:45:12;8.20;;;4.20;;
38208;SDS011;24016;52.102;11.584;2022-10-31T01:47:41;9.63;;;4.60;;
38208;SDS011;24016;52.102;11.584;2022-10-31T01:50:12;6.90;;;4.82;;
38208;SDS011;24016;52.102;11.584;2022-10-31T01:52:59;12.18;;;4.45;;
38208;SDS011;24016;52.102;11.584;2022-10-31T01:55:27;13.20;;;4.88;;
38208;SDS011;24016;52.102;11.584;2022-10-31T01:57:58;11.27;;;4.65;;
38208;SDS011;24016;52.102;11.584;2022-10-31T02:00:29;12.10;;;4.57;;
38208;SDS011;24016;52.102;11.584;2022-10-31T02:02:55;8.98;;;4.30;;
38208;SDS011;24016;52.102;11.584;2022-10-31T02:05:21;10.57;;;4.57;;
38208;SDS011;24016;52.102;11.584;2022-10-31T02:10:43;14.93;;;4.60;;
38208;SDS011;24016;52.102;11.584;2022-10-31T02:13:09;12.52;;;5.45;;
38208;SDS011;24016;52.102;11.584;2022-10-31T02:15:36;8.35;;;5.10;;
38208;SDS011;24016;52.102;11.584;2022-10-31T02:18:03;8.20;;;4.85;;
38208;SDS011;24016;52.102;11.584;2022-10-31T02:20:32;10.75;;;5.20;;
38208;SDS011;24016;52.102;11.584;2022-10-31T02:29:08;9.27;;;5.47;;
38208;SDS011;24016;52.102;11.584;2022-10-31T02:32:00;9.23;;;5.22;;
38208;SDS011;24016;52.102;11.584;2022-10-31T02:34:40;12.50;;;5.90;;
38208;SDS011;24016;52.102;11.584;2022-10-31T02:37:15;10.05;;;5.32;;
38208;SDS011;24016;52.102;11.584;2022-10-31T02:40:14;13.02;;;5.60;;
38208;SDS011;24016;52.102;11.584;2022-10-31T02:42:51;13.93;;;5.55;;
38208;SDS011;24016;52.102;11.584;2022-10-31T02:48:08;14.88;;;5.45;;
38208;SDS011;24016;52.102;11.584;2022-10-31T02:50:39;10.77;;;5.55;;
38208;SDS011;24016;52.102;11.584;2022-10-31T02:53:07;10.23;;;5.03;;
38208;SDS011;24016;52.102;11.584;2022-10-31T02:58:03;9.07;;;5.47;;
38208;SDS011;24016;52.102;11.584;2022-10-31T03:03:13;11.27;;;5.68;;
38208;SDS011;24016;52.102;11.584;2022-10-31T03:06:03;10.15;;;5.20;;
38208;SDS011;24016;52.102;11.584;2022-10-31T03:08:43;9.80;;;5.80;;
38208;SDS011;24016;52.102;11.584;2022-10-31T03:11:20;13.98;;;5.28;;
38208;SDS011;24016;52.102;11.584;2022-10-31T03:13:57;9.30;;;5.40;;
38208;SDS011;24016;52.102;11.584;2022-10-31T03:19:23;12.38;;;5.60;;
38208;SDS011;24016;52.102;11.584;2022-10-31T03:21:57;18.02;;;5.22;;
38208;SDS011;24016;52.102;11.584;2022-10-31T03:24:46;12.93;;;5.90;;
38208;SDS011;24016;52.102;11.584;2022-10-31T03:27:14;12.30;;;6.32;;
38208;SDS011;24016;52.102;11.584;2022-10-31T03:29:43;11.65;;;6.00;;
38208;SDS011;24016;52.102;11.584;2022-10-31T03:32:18;10.50;;;5.50;;
38208;SDS011;24016;52.102;11.584;2022-10-31T03:34:51;17.13;;;6.13;;
38208;SDS011;24016;52.102;11.584;2022-10-31T03:37:20;12.23;;;6.00;;
38208;SDS011;24016;52.102;11.584;2022-10-31T03:39:49;16.30;;;6.50;;
38208;SDS011;24016;52.102;11.584;2022-10-31T03:42:17;12.35;;;6.13;;
38208;SDS011;24016;52.102;11.584;2022-10-31T03:44:49;17.45;;;6.57;;
38208;SDS011;24016;52.102;11.584;2022-10-31T03:47:29;11.07;;;5.70;;
38208;SDS011;24016;52.102;11.584;2022-10-31T03:49:55;8.50;;;5.90;;
38208;SDS011;24016;52.102;11.584;2022-10-31T03:55:05;12.13;;;6.45;;
38208;SDS011;24016;52.102;11.584;2022-10-31T03:57:39;11.63;;;6.32;;
38208;SDS011;24016;52.102;11.584;2022-10-31T04:00:16;11.50;;;6.05;;
38208;SDS011;24016;52.102;11.584;2022-10-31T04:03:26;10.85;;;6.25;;
38208;SDS011;24016;52.102;11.584;2022-10-31T04:05:35;13.70;;;7.15;;
38208;SDS011;24016;52.102;11.584;2022-10-31T04:08:03;14.05;;;6.70;;
38208;SDS011;24016;52.102;11.584;2022-10-31T04:13:01;12.70;;;6.95;;
38208;SDS011;24016;52.102;11.584;2022-10-31T04:15:31;15.05;;;7.57;;
38208;SDS011;24016;52.102;11.584;2022-10-31T04:17:59;17.75;;;7.05;;
38208;SDS011;24016;52.102;11.584;2022-10-31T04:20:36;12.63;;;7.30;;
38208;SDS011;24016;52.102;11.584;2022-10-31T04:23:04;14.20;;;7.00;;
38208;SDS011;24016;52.102;11.584;2022-10-31T04:25:35;13.57;;;6.90;;
38208;SDS011;24016;52.102;11.584;2022-10-31T04:28:00;13.75;;;7.28;;
38208;SDS011;24016;52.102;11.584;2022-10-31T04:30:26;14.98;;;8.02;;
38208;SDS011;24016;52.102;11.584;2022-10-31T04:32:51;12.95;;;8.10;;
38208;SDS011;24016;52.102;11.584;2022-10-31T04:35:17;14.73;;;7.60;;
38208;SDS011;24016;52.102;11.584;2022-10-31T04:37:43;10.38;;;7.60;;
38208;SDS011;24016;52.102;11.584;2022-10-31T04:40:08;14.77;;;8.30;;
38208;SDS011;24016;52.102;11.584;2022-10-31T04:42:34;12.82;;;7.10;;
38208;SDS011;24016;52.102;11.584;2022-10-31T04:45:00;13.93;;;8.30;;
38208;SDS011;24016;52.102;11.584;2022-10-31T04:47:25;15.23;;;8.25;;
38208;SDS011;24016;52.102;11.584;2022-10-31T04:49:51;15.60;;;8.30;;
38208;SDS011;24016;52.102;11.584;2022-10-31T04:52:17;17.58;;;9.25;;
38208;SDS011;24016;52.102;11.584;2022-10-31T04:54:42;15.05;;;9.35;;
38208;SDS011;24016;52.102;11.584;2022-10-31T04:57:08;13.90;;;8.88;;
38208;SDS011;24016;52.102;11.584;2022-10-31T04:59:33;19.27;;;9.40;;
38208;SDS011;24016;52.102;11.584;2022-10-31T05:01:59;14.27;;;9.50;;
38208;SDS011;24016;52.102;11.584;2022-10-31T05:04:24;17.77;;;10.20;;
38208;SDS011;24016;52.102;11.584;2022-10-31T05:06:50;27.15;;;13.00;;
38208;SDS011;24016;52.102;11.584;2022-10-31T05:09:15;23.52;;;14.45;;
38208;SDS011;24016;52.102;11.584;2022-10-31T05:11:41;30.42;;;15.73;;
38208;SDS011;24016;52.102;11.584;2022-10-31T05:14:07;23.92;;;16.17;;
38208;SDS011;24016;52.102;11.584;2022-10-31T05:16:32;29.70;;;17.58;;
38208;SDS011;24016;52.102;11.584;2022-10-31T05:18:58;39.90;;;20.17;;
38208;SDS011;24016;52.102;11.584;2022-10-31T05:21:23;41.80;;;24.35;;
38208;SDS011;24016;52.102;11.584;2022-10-31T05:23:49;44.40;;;23.70;;
38208;SDS011;24016;52.102;11.584;2022-10-31T05:26:15;54.47;;;29.15;;
38208;SDS011;24016;52.102;11.584;2022-10-31T05:28:41;47.88;;;28.13;;
38208;SDS011;24016;52.102;11.584;2022-10-31T05:31:07;49.92;;;28.02;;
38208;SDS011;24016;52.102;11.584;2022-10-31T05:33:32;49.25;;;26.67;;
38208;SDS011;24016;52.102;11.584;2022-10-31T05:35:58;49.78;;;27.73;;
38208;SDS011;24016;52.102;11.584;2022-10-31T05:38:23;42.42;;;24.63;;
38208;SDS011;24016;52.102;11.584;2022-10-31T05:40:49;41.25;;;23.85;;
38208;SDS011;24016;52.102;11.584;2022-10-31T05:43:15;47.30;;;24.73;;
38208;SDS011;24016;52.102;11.584;2022-10-31T05:45:40;46.75;;;26.00;;
38208;SDS011;24016;52.102;11.584;2022-10-31T05:48:06;47.53;;;27.20;;
38208;SDS011;24016;52.102;11.584;2022-10-31T05:50:33;50.78;;;27.90;;
38208;SDS011;24016;52.102;11.584;2022-10-31T05:52:59;50.58;;;31.98;;
38208;SDS011;24016;52.102;11.584;2022-10-31T05:55:29;53.83;;;33.15;;
38208;SDS011;24016;52.102;11.584;2022-10-31T05:57:55;60.08;;;30.38;;
38208;SDS011;24016;52.102;11.584;2022-10-31T06:00:21;61.53;;;31.20;;
38208;SDS011;24016;52.102;11.584;2022-10-31T06:02:47;58.67;;;31.42;;
38208;SDS011;24016;52.102;11.584;2022-10-31T06:05:13;64.32;;;31.95;;
38208;SDS011;24016;52.102;11.584;2022-10-31T06:07:39;57.63;;;29.88;;
38208;SDS011;24016;52.102;11.584;2022-10-31T06:10:05;60.22;;;31.77;;
38208;SDS011;24016;52.102;11.584;2022-10-31T06:12:33;60.25;;;31.80;;
38208;SDS011;24016;52.102;11.584;2022-10-31T06:15:03;64.03;;;31.20;;
38208;SDS011;24016;52.102;11.584;2022-10-31T06:17:30;66.25;;;31.38;;
38208;SDS011;24016;52.102;11.584;2022-10-31T06:19:56;52.05;;;28.38;;
38208;SDS011;24016;52.102;11.584;2022-10-31T06:22:22;64.30;;;32.50;;
38208;SDS011;24016;52.102;11.584;2022-10-31T06:24:47;66.05;;;33.10;;
38208;SDS011;24016;52.102;11.584;2022-10-31T06:27:13;82.10;;;38.00;;
38208;SDS011;24016;52.102;11.584;2022-10-31T06:29:38;66.47;;;34.55;;
38208;SDS011;24016;52.102;11.584;2022-10-31T06:32:04;86.20;;;40.63;;
38208;SDS011;24016;52.102;11.584;2022-10-31T06:34:30;113.25;;;48.95;;
38208;SDS011;24016;52.102;11.584;2022-10-31T06:36:55;130.65;;;52.15;;
38208;SDS011;24016;52.102;11.584;2022-10-31T06:39:21;130.27;;;52.35;;
38208;SDS011;24016;52.102;11.584;2022-10-31T06:41:47;120.03;;;50.67;;
38208;SDS011;24016;52.102;11.584;2022-10-31T06:44:13;126.10;;;52.47;;
38208;SDS011;24016;52.102;11.584;2022-10-31T06:46:38;140.57;;;55.58;;
38208;SDS011;24016;52.102;11.584;2022-10-31T06:49:04;123.90;;;53.83;;
38208;SDS011;24016;52.102;11.584;2022-10-31T06:51:30;112.82;;;51.70;;
38208;SDS011;24016;52.102;11.584;2022-10-31T06:53:55;118.85;;;51.10;;
38208;SDS011;24016;52.102;11.584;2022-10-31T06:56:21;125.82;;;52.75;;
38208;SDS011;24016;52.102;11.584;2022-10-31T06:58:46;112.82;;;50.53;;
38208;SDS011;24016;52.102;11.584;2022-10-31T07:01:12;118.60;;;50.33;;
38208;SDS011;24016;52.102;11.584;2022-10-31T07:03:38;115.60;;;52.13;;
38208;SDS011;24016;52.102;11.584;2022-10-31T07:06:03;137.75;;;54.60;;
38208;SDS011;24016;52.102;11.584;2022-10-31T07:08:29;128.20;;;54.90;;
38208;SDS011;24016;52.102;11.584;2022-10-31T07:10:55;125.35;;;54.80;;
38208;SDS011;24016;52.102;11.584;2022-10-31T07:13:22;126.03;;;53.90;;
38208;SDS011;24016;52.102;11.584;2022-10-31T07:15:51;129.02;;;55.20;;
38208;SDS011;24016;52.102;11.584;2022-10-31T07:18:20;134.50;;;55.28;;
38208;SDS011;24016;52.102;11.584;2022-10-31T07:20:47;130.73;;;53.15;;
38208;SDS011;24016;52.102;11.584;2022-10-31T07:23:13;132.02;;;56.90;;
38208;SDS011;24016;52.102;11.584;2022-10-31T07:25:39;137.35;;;57.72;;
38208;SDS011;24016;52.102;11.584;2022-10-31T07:28:05;129.52;;;55.92;;
38208;SDS011;24016;52.102;11.584;2022-10-31T07:30:31;135.50;;;57.47;;
38208;SDS011;24016;52.102;11.584;2022-10-31T07:32:57;149.50;;;58.80;;
38208;SDS011;24016;52.102;11.584;2022-10-31T07:35:24;127.90;;;56.33;;
38208;SDS011;24016;52.102;11.584;2022-10-31T07:37:52;127.70;;;57.15;;
38208;SDS011;24016;52.102;11.584;2022-10-31T07:40:18;134.10;;;56.22;;
38208;SDS011;24016;52.102;11.584;2022-10-31T07:42:48;124.53;;;52.63;;
38208;SDS011;24016;52.102;11.584;2022-10-31T07:45:15;109.72;;;52.10;;
38208;SDS011;24016;52.102;11.584;2022-10-31T07:47:46;107.63;;;50.22;;
38208;SDS011;24016;52.102;11.584;2022-10-31T07:50:17;115.22;;;52.88;;
38208;SDS011;24016;52.102;11.584;2022-10-31T07:53:09;107.30;;;49.47;;
38208;SDS011;24016;52.102;11.584;2022-10-31T07:55:36;100.28;;;48.65;;
38208;SDS011;24016;52.102;11.584;2022-10-31T07:58:03;111.22;;;48.13;;
38208;SDS011;24016;52.102;11.584;2022-10-31T08:00:30;102.07;;;46.90;;
38208;SDS011;24016;52.102;11.584;2022-10-31T08:03:00;113.50;;;48.05;;
38208;SDS011;24016;52.102;11.584;2022-10-31T08:05:28;100.97;;;45.47;;
38208;SDS011;24016;52.102;11.584;2022-10-31T08:07:54;98.95;;;47.42;;
38208;SDS011;24016;52.102;11.584;2022-10-31T08:10:20;98.15;;;46.33;;
38208;SDS011;24016;52.102;11.584;2022-10-31T08:12:46;115.85;;;48.38;;
38208;SDS011;24016;52.102;11.584;2022-10-31T08:15:12;106.32;;;48.88;;
38208;SDS011;24016;52.102;11.584;2022-10-31T08:17:38;109.60;;;47.95;;
38208;SDS011;24016;52.102;11.584;2022-10-31T08:20:04;108.90;;;48.25;;
38208;SDS011;24016;52.102;11.584;2022-10-31T08:22:30;113.35;;;49.85;;
38208;SDS011;24016;52.102;11.584;2022-10-31T08:24:56;110.55;;;48.55;;
38208;SDS011;24016;52.102;11.584;2022-10-31T08:27:21;105.88;;;47.85;;
38208;SDS011;24016;52.102;11.584;2022-10-31T08:29:47;110.28;;;47.88;;
38208;SDS011;24016;52.102;11.584;2022-10-31T08:32:13;111.30;;;48.95;;
38208;SDS011;24016;52.102;11.584;2022-10-31T08:34:38;105.07;;;46.63;;
38208;SDS011;24016;52.102;11.584;2022-10-31T08:37:04;97.80;;;45.78;;
38208;SDS011;24016;52.102;11.584;2022-10-31T08:39:30;95.03;;;44.47;;
38208;SDS011;24016;52.102;11.584;2022-10-31T08:41:55;86.15;;;42.90;;
38208;SDS011;24016;52.102;11.584;2022-10-31T08:44:21;79.10;;;40.80;;
38208;SDS011;24016;52.102;11.584;2022-10-31T08:46:46;87.65;;;42.17;;
38208;SDS011;24016;52.102;11.584;2022-10-31T08:49:12;83.53;;;42.85;;
38208;SDS011;24016;52.102;11.584;2022-10-31T08:51:38;84.00;;;40.60;;
38208;SDS011;24016;52.102;11.584;2022-10-31T08:54:03;80.03;;;42.47;;
38208;SDS011;24016;52.102;11.584;2022-10-31T08:56:29;78.40;;;39.80;;
38208;SDS011;24016;52.102;11.584;2022-10-31T08:58:55;81.38;;;40.72;;
38208;SDS011;24016;52.102;11.584;2022-10-31T09:01:20;76.88;;;40.83;;
38208;SDS011;24016;52.102;11.584;2022-10-31T09:03:46;79.28;;;40.70;;
38208;SDS011;24016;52.102;11.584;2022-10-31T09:06:12;86.22;;;40.75;;
38208;SDS011;24016;52.102;11.584;2022-10-31T09:08:37;79.93;;;39.38;;
38208;SDS011;24016;52.102;11.584;2022-10-31T09:11:03;75.60;;;39.38;;
38208;SDS011;24016;52.102;11.584;2022-10-31T09:13:29;83.05;;;40.80;;
38208;SDS011;24016;52.102;11.584;2022-10-31T09:15:55;80.85;;;39.95;;
38208;SDS011;24016;52.102;11.584;2022-10-31T09:18:23;72.93;;;38.83;;
38208;SDS011;24016;52.102;11.584;2022-10-31T09:20:49;70.90;;;38.17;;
38208;SDS011;24016;52.102;11.584;2022-10-31T09:23:16;79.32;;;39.38;;
38208;SDS011;24016;52.102;11.584;2022-10-31T09:25:43;69.55;;;37.83;;
38208;SDS011;24016;52.102;11.584;2022-10-31T09:28:11;71.93;;;38.80;;
38208;SDS011;24016;52.102;11.584;2022-10-31T09:30:39;79.35;;;39.58;;
38208;SDS011;24016;52.102;11.584;2022-10-31T09:33:05;79.40;;;38.42;;
38208;SDS011;24016;52.102;11.584;2022-10-31T09:35:35;76.63;;;39.70;;
38208;SDS011;24016;52.102;11.584;2022-10-31T09:38:12;71.95;;;40.08;;
38208;SDS011;24016;52.102;11.584;2022-10-31T09:40:45;70.35;;;37.97;;
38208;SDS011;24016;52.102;11.584;2022-10-31T09:43:30;80.20;;;40.30;;
38208;SDS011;24016;52.102;11.584;2022-10-31T09:49:17;81.53;;;39.78;;
38208;SDS011;24016;52.102;11.584;2022-10-31T09:52:01;77.32;;;39.70;;
38208;SDS011;24016;52.102;11.584;2022-10-31T09:54:36;74.50;;;38.25;;
38208;SDS011;24016;52.102;11.584;2022-10-31T09:57:12;75.25;;;38.55;;
38208;SDS011;24016;52.102;11.584;2022-10-31T09:59:40;75.70;;;38.53;;
38208;SDS011;24016;52.102;11.584;2022-10-31T10:07:24;71.45;;;36.42;;
38208;SDS011;24016;52.102;11.584;2022-10-31T10:09:57;59.78;;;34.90;;
38208;SDS011;24016;52.102;11.584;2022-10-31T10:12:36;70.68;;;37.35;;
38208;SDS011;24016;52.102;11.584;2022-10-31T10:26:43;59.20;;;35.05;;
38208;SDS011;24016;52.102;11.584;2022-10-31T10:32:28;57.10;;;33.38;;
38208;SDS011;24016;52.102;11.584;2022-10-31T10:35:16;58.90;;;34.72;;
38208;SDS011;24016;52.102;11.584;2022-10-31T10:38:12;65.93;;;36.08;;
38208;SDS011;24016;52.102;11.584;2022-10-31T10:40:48;68.80;;;36.65;;
38208;SDS011;24016;52.102;11.584;2022-10-31T10:51:48;70.40;;;37.85;;
38208;SDS011;24016;52.102;11.584;2022-10-31T10:59:55;58.72;;;34.72;;
38208;SDS011;24016;52.102;11.584;2022-10-31T11:02:27;60.45;;;34.55;;
38208;SDS011;24016;52.102;11.584;2022-10-31T11:07:25;57.70;;;35.10;;
38208;SDS011;24016;52.102;11.584;2022-10-31T11:10:05;58.45;;;35.15;;
38208;SDS011;24016;52.102;11.584;2022-10-31T11:12:38;58.75;;;35.70;;
38208;SDS011;24016;52.102;11.584;2022-10-31T11:18:02;56.20;;;33.67;;
38208;SDS011;24016;52.102;11.584;2022-10-31T11:20:30;54.58;;;33.95;;
38208;SDS011;24016;52.102;11.584;2022-10-31T11:23:19;57.58;;;33.08;;
38208;SDS011;24016;52.102;11.584;2022-10-31T11:28:20;59.03;;;34.70;;
38208;SDS011;24016;52.102;11.584;2022-10-31T11:30:56;57.42;;;34.08;;
38208;SDS011;24016;52.102;11.584;2022-10-31T11:33:31;49.55;;;32.58;;
38208;SDS011;24016;52.102;11.584;2022-10-31T11:36:13;58.65;;;33.63;;
38208;SDS011;24016;52.102;11.584;2022-10-31T11:38:43;67.47;;;34.80;;
38208;SDS011;24016;52.102;11.584;2022-10-31T11:43:37;65.63;;;35.45;;
38208;SDS011;24016;52.102;11.584;2022-10-31T11:46:11;67.43;;;35.92;;
38208;SDS011;24016;52.102;11.584;2022-10-31T11:48:45;63.50;;;35.25;;
38208;SDS011;24016;52.102;11.584;2022-10-31T11:51:12;63.58;;;35.55;;
38208;SDS011;24016;52.102;11.584;2022-10-31T11:53:49;60.83;;;35.20;;
38208;SDS011;24016;52.102;11.584;2022-10-31T11:56:17;61.42;;;35.53;;
38208;SDS011;24016;52.102;11.584;2022-10-31T11:58:43;64.55;;;35.25;;
38208;SDS011;24016;52.102;11.584;2022-10-31T12:01:24;64.35;;;35.60;;
38208;SDS011;24016;52.102;11.584;2022-10-31T12:04:11;52.95;;;33.38;;
38208;SDS011;24016;52.102;11.584;2022-10-31T12:06:38;51.88;;;33.25;;
38208;SDS011;24016;52.102;11.584;2022-10-31T12:09:27;55.38;;;33.83;;
38208;SDS011;24016;52.102;11.584;2022-10-31T12:12:04;54.33;;;33.25;;
38208;SDS011;24016;52.102;11.584;2022-10-31T12:23:06;59.03;;;34.58;;
38208;SDS011;24016;52.102;11.584;2022-10-31T12:37:05;66.75;;;36.88;;
38208;SDS011;24016;52.102;11.584;2022-10-31T12:42:21;58.50;;;33.72;;
38208;SDS011;24016;52.102;11.584;2022-10-31T12:44:59;59.28;;;34.08;;
38208;SDS011;24016;52.102;11.584;2022-10-31T12:50:34;66.20;;;34.97;;
38208;SDS011;24016;52.102;11.584;2022-10-31T12:59:10;64.47;;;36.42;;
38208;SDS011;24016;52.102;11.584;2022-10-31T13:01:53;61.10;;;35.67;;
38208;SDS011;24016;52.102;11.584;2022-10-31T13:07:34;62.95;;;36.50;;
38208;SDS011;24016;52.102;11.584;2022-10-31T13:12:43;66.25;;;40.85;;
38208;SDS011;24016;52.102;11.584;2022-10-31T13:15:30;65.68;;;36.85;;
38208;SDS011;24016;52.102;11.584;2022-10-31T13:18:12;63.10;;;37.15;;
38208;SDS011;24016;52.102;11.584;2022-10-31T13:20:50;70.88;;;38.42;;
38208;SDS011;24016;52.102;11.584;2022-10-31T13:26:12;78.00;;;41.15;;
38208;SDS011;24016;52.102;11.584;2022-10-31T13:28:46;71.63;;;38.88;;
38208;SDS011;24016;52.102;11.584;2022-10-31T13:31:32;78.03;;;40.28;;
38208;SDS011;24016;52.102;11.584;2022-10-31T13:34:00;70.15;;;38.03;;
38208;SDS011;24016;52.102;11.584;2022-10-31T13:36:34;77.15;;;39.13;;
38208;SDS011;24016;52.102;11.584;2022-10-31T13:39:14;63.75;;;37.70;;
38208;SDS011;24016;52.102;11.584;2022-10-31T13:44:45;73.75;;;39.08;;
38208;SDS011;24016;52.102;11.584;2022-10-31T13:47:27;68.30;;;38.78;;
38208;SDS011;24016;52.102;11.584;2022-10-31T13:50:18;70.05;;;36.97;;
38208;SDS011;24016;52.102;11.584;2022-10-31T13:52:46;75.55;;;38.78;;
38208;SDS011;24016;52.102;11.584;2022-10-31T13:58:23;80.60;;;41.05;;
38208;SDS011;24016;52.102;11.584;2022-10-31T14:01:12;82.28;;;41.97;;
38208;SDS011;24016;52.102;11.584;2022-10-31T14:03:42;89.15;;;43.70;;
38208;SDS011;24016;52.102;11.584;2022-10-31T14:06:10;86.82;;;43.95;;
38208;SDS011;24016;52.102;11.584;2022-10-31T14:08:42;88.53;;;45.38;;
38208;SDS011;24016;52.102;11.584;2022-10-31T14:11:24;88.72;;;44.35;;
38208;SDS011;24016;52.102;11.584;2022-10-31T14:13:54;87.68;;;43.85;;
38208;SDS011;24016;52.102;11.584;2022-10-31T14:16:29;89.50;;;42.92;;
38208;SDS011;24016;52.102;11.584;2022-10-31T14:19:16;91.85;;;43.13;;
38208;SDS011;24016;52.102;11.584;2022-10-31T14:21:44;94.80;;;45.15;;
38208;SDS011;24016;52.102;11.584;2022-10-31T14:24:35;95.20;;;46.83;;
38208;SDS011;24016;52.102;11.584;2022-10-31T14:27:03;101.88;;;47.10;;
38208;SDS011;24016;52.102;11.584;2022-10-31T14:29:48;99.40;;;48.40;;
38208;SDS011;24016;52.102;11.584;2022-10-31T14:32:18;97.10;;;47.45;;
38208;SDS011;24016;52.102;11.584;2022-10-31T14:34:53;98.95;;;49.05;;
38208;SDS011;24016;52.102;11.584;2022-10-31T14:48:51;107.50;;;49.92;;
38208;SDS011;24016;52.102;11.584;2022-10-31T14:51:32;115.68;;;50.45;;
38208;SDS011;24016;52.102;11.584;2022-10-31T14:54:14;113.97;;;50.75;;
38208;SDS011;24016;52.102;11.584;2022-10-31T14:56:54;115.75;;;52.20;;
38208;SDS011;24016;52.102;11.584;2022-10-31T14:59:28;122.53;;;51.17;;
38208;SDS011;24016;52.102;11.584;2022-10-31T15:01:59;108.55;;;49.80;;
38208;SDS011;24016;52.102;11.584;2022-10-31T15:04:34;103.40;;;47.90;;
38208;SDS011;24016;52.102;11.584;2022-10-31T15:09:34;84.32;;;41.33;;
38208;SDS011;24016;52.102;11.584;2022-10-31T15:12:01;88.72;;;43.10;;
38208;SDS011;24016;52.102;11.584;2022-10-31T15:15:13;83.13;;;40.55;;
38208;SDS011;24016;52.102;11.584;2022-10-31T15:17:44;88.93;;;43.05;;
38208;SDS011;24016;52.102;11.584;2022-10-31T15:20:17;96.22;;;46.13;;
38208;SDS011;24016;52.102;11.584;2022-10-31T15:22:45;101.03;;;47.42;;
38208;SDS011;24016;52.102;11.584;2022-10-31T15:25:22;105.45;;;46.65;;
38208;SDS011;24016;52.102;11.584;2022-10-31T15:27:50;105.25;;;47.00;;
38208;SDS011;24016;52.102;11.584;2022-10-31T15:30:18;119.05;;;51.33;;
38208;SDS011;24016;52.102;11.584;2022-10-31T15:32:49;112.05;;;49.97;;
38208;SDS011;24016;52.102;11.584;2022-10-31T15:35:22;120.53;;;50.97;;
38208;SDS011;24016;52.102;11.584;2022-10-31T15:37:53;128.77;;;50.03;;
38208;SDS011;24016;52.102;11.584;2022-10-31T15:40:20;116.70;;;51.90;;
38208;SDS011;24016;52.102;11.584;2022-10-31T15:42:50;110.32;;;48.53;;
38208;SDS011;24016;52.102;11.584;2022-10-31T15:45:22;116.00;;;49.22;;
38208;SDS011;24016;52.102;11.584;2022-10-31T15:47:54;117.57;;;48.97;;
38208;SDS011;24016;52.102;11.584;2022-10-31T15:50:35;134.07;;;53.85;;
38208;SDS011;24016;52.102;11.584;2022-10-31T15:53:05;122.53;;;52.55;;
38208;SDS011;24016;52.102;11.584;2022-10-31T15:55:44;135.88;;;52.85;;
38208;SDS011;24016;52.102;11.584;2022-10-31T15:58:17;154.63;;;56.50;;
38208;SDS011;24016;52.102;11.584;2022-10-31T16:00:43;137.20;;;54.55;;
38208;SDS011;24016;52.102;11.584;2022-10-31T16:05:44;136.80;;;55.22;;
38208;SDS011;24016;52.102;11.584;2022-10-31T16:08:22;135.05;;;53.22;;
38208;SDS011;24016;52.102;11.584;2022-10-31T16:10:57;164.00;;;53.88;;
38208;SDS011;24016;52.102;11.584;2022-10-31T16:13:31;138.35;;;52.33;;
38208;SDS011;24016;52.102;11.584;2022-10-31T16:16:03;140.43;;;54.75;;
38208;SDS011;24016;52.102;11.584;2022-10-31T16:18:36;141.68;;;53.78;;
38208;SDS011;24016;52.102;11.584;2022-10-31T16:21:04;143.68;;;55.05;;
38208;SDS011;24016;52.102;11.584;2022-10-31T16:23:30;135.77;;;54.60;;
38208;SDS011;24016;52.102;11.584;2022-10-31T16:25:56;126.65;;;53.65;;
38208;SDS011;24016;52.102;11.584;2022-10-31T16:28:23;128.35;;;51.70;;
38208;SDS011;24016;52.102;11.584;2022-10-31T16:30:52;132.90;;;53.75;;
38208;SDS011;24016;52.102;11.584;2022-10-31T16:35:45;127.25;;;52.05;;
38208;SDS011;24016;52.102;11.584;2022-10-31T16:38:11;130.75;;;52.47;;
38208;SDS011;24016;52.102;11.584;2022-10-31T16:40:37;123.13;;;51.95;;
38208;SDS011;24016;52.102;11.584;2022-10-31T16:43:03;132.23;;;52.10;;
38208;SDS011;24016;52.102;11.584;2022-10-31T16:45:29;126.00;;;52.80;;